sensor_id;sensor_type;location;lat;lon;timestamp;pressure;altitude;pressure_sealevel;temperature;humidity
18275;BME280;19470;49.322;7.218;2022-11-15T00:00:01;98350.16;;;13.11;100.00
18275;BME280;19470;49.322;7.218;2022-11-15T00:02:28;98341.69;;;13.24;100.00
18275;BME280;19470;49.322;7.218;2022-11-15T00:04:54;98350.44;;;13.10;100.00
18275;BME280;19470;49.322;7.218;2022-11-15T00:07:22;98347.00;;;13.24;100.00
18275;BME280;19470;49.322;7.218;2022-11-15T00:09:49;98350.44;;;13.20;100.00
18275;BME280;19470;49.322;7.218;2022-11-15T00:12:15;98344.34;;;13.40;100.00
18275;BME280;19470;49.322;7.218;2022-11-15T00:14:42;98342.47;;;13.45;100.00
18275;BME280;19470;49.322;7.218;2022-11-15T00:17:08;98337.44;;;13.08;100.00
18275;BME280;19470;49.322;7.218;2022-11-15T00:19:35;98339.03;;;13.24;100.00
18275;BME280;19470;49.322;7.218;2022-11-15T00:22:01;98343.81;;;13.38;100.00
18275;BME280;19470;49.322;7.218;2022-11-15T00:24:29;98341.13;;;13.53;100.00
18275;BME280;19470;49.322;7.218;2022-11-15T00:26:56;98331.84;;;13.25;100.00
18275;BME280;19470;49.322;7.218;2022-11-15T00:29:22;98346.97;;;13.45;100.00
18275;BME280;19470;49.322;7.218;2022-11-15T00:31:49;98347.53;;;13.42;100.00
18275;BME280;19470;49.322;7.218;2022-11-15T00:34:15;98347.00;;;13.35;100.00
18275;BME280;19470;49.322;7.218;2022-11-15T00:36:42;98328.66;;;13.23;100.00
18275;BME280;19470;49.322;7.218;2022-11-15T00:39:08;98328.13;;;13.36;100.00
18275;BME280;19470;49.322;7.218;2022-11-15T00:41:36;98334.50;;;13.35;100.00
18275;BME280;19470;49.322;7.218;2022-11-15T00:44:03;98331.81;;;13.45;100.00
18275;BME280;19470;49.322;7.218;2022-11-15T00:46:29;98331.03;;;13.45;100.00
18275;BME280;19470;49.322;7.218;2022-11-15T00:48:56;98329.97;;;13.46;100.00
18275;BME280;19470;49.322;7.218;2022-11-15T00:51:22;98328.63;;;13.48;100.00
18275;BME280;19470;49.322;7.218;2022-11-15T00:53:49;98325.72;;;13.29;100.00
18275;BME280;19470;49.322;7.218;2022-11-15T00:56:15;98322.25;;;13.49;100.00
18275;BME280;19470;49.322;7.218;2022-11-15T00:58:43;98326.78;;;13.39;100.00
18275;BME280;19470;49.322;7.218;2022-11-15T01:01:12;98322.22;;;13.60;100.00
18275;BME280;19470;49.322;7.218;2022-11-15T01:03:42;98324.34;;;13.58;100.00
18275;BME280;19470;49.322;7.218;2022-11-15T01:06:09;98322.22;;;13.60;100.00
18275;BME280;19470;49.322;7.218;2022-11-15T01:08:37;98320.38;;;13.55;100.00
18275;BME280;19470;49.322;7.218;2022-11-15T01:11:06;98329.69;;;13.58;100.00
18275;BME280;19470;49.322;7.218;2022-11-15T01:13:34;98319.53;;;13.75;100.00
18275;BME280;19470;49.322;7.218;2022-11-15T01:16:07;98324.09;;;13.54;100.00
18275;BME280;19470;49.322;7.218;2022-11-15T01:18:34;98332.31;;;13.63;100.00
18275;BME280;19470;49.322;7.218;2022-11-15T01:21:04;98331.53;;;13.62;100.00
18275;BME280;19470;49.322;7.218;2022-11-15T01:23:31;98328.06;;;13.72;100.00
18275;BME280;19470;49.322;7.218;2022-11-15T01:25:58;98325.13;;;13.68;100.00
18275;BME280;19470;49.322;7.218;2022-11-15T01:28:25;98329.97;;;13.51;100.00
18275;BME280;19470;49.322;7.218;2022-11-15T01:30:52;98319.81;;;13.63;100.00
18275;BME280;19470;49.322;7.218;2022-11-15T01:33:19;98326.25;;;13.42;100.00
18275;BME280;19470;49.322;7.218;2022-11-15T01:35:46;98320.38;;;13.60;100.00
18275;BME280;19470;49.322;7.218;2022-11-15T01:38:12;98317.72;;;13.55;100.00
18275;BME280;19470;49.322;7.218;2022-11-15T01:40:42;98314.78;;;13.57;100.00
18275;BME280;19470;49.322;7.218;2022-11-15T01:43:22;98314.25;;;13.65;100.00
18275;BME280;19470;49.322;7.218;2022-11-15T01:45:52;98306.78;;;13.62;100.00
18275;BME280;19470;49.322;7.218;2022-11-15T01:48:22;98311.28;;;13.76;100.00
18275;BME280;19470;49.322;7.218;2022-11-15T01:50:50;98316.69;;;13.46;100.00
18275;BME280;19470;49.322;7.218;2022-11-15T01:53:19;98315.28;;;13.74;100.00
18275;BME280;19470;49.322;7.218;2022-11-15T01:55:47;98308.91;;;13.70;100.00
18275;BME280;19470;49.322;7.218;2022-11-15T01:58:14;98310.72;;;13.85;100.00
18275;BME280;19470;49.322;7.218;2022-11-15T02:00:40;98305.16;;;13.76;100.00
18275;BME280;19470;49.322;7.218;2022-11-15T02:03:07;98304.38;;;13.70;100.00
18275;BME280;19470;49.322;7.218;2022-11-15T02:05:36;98300.94;;;13.70;100.00
18275;BME280;19470;49.322;7.218;2022-11-15T02:08:03;98301.19;;;13.63;100.00
18275;BME280;19470;49.322;7.218;2022-11-15T02:10:30;98302.50;;;13.71;100.00
18275;BME280;19470;49.322;7.218;2022-11-15T02:12:59;98299.53;;;13.93;100.00
18275;BME280;19470;49.322;7.218;2022-11-15T02:15:31;98292.13;;;13.74;100.00
18275;BME280;19470;49.322;7.218;2022-11-15T02:18:09;98288.66;;;13.69;100.00
18275;BME280;19470;49.322;7.218;2022-11-15T02:20:53;98278.53;;;13.81;100.00
18275;BME280;19470;49.322;7.218;2022-11-15T02:26:42;98278.09;;;13.48;100.00
18275;BME280;19470;49.322;7.218;2022-11-15T02:29:22;98276.50;;;13.52;100.00
18275;BME280;19470;49.322;7.218;2022-11-15T02:31:59;98263.38;;;13.71;100.00
18275;BME280;19470;49.322;7.218;2022-11-15T02:34:35;98259.94;;;13.71;100.00
18275;BME280;19470;49.322;7.218;2022-11-15T02:37:11;98258.16;;;13.46;100.00
18275;BME280;19470;49.322;7.218;2022-11-15T02:39:46;98267.16;;;13.60;100.00
18275;BME280;19470;49.322;7.218;2022-11-15T02:42:19;98249.56;;;13.64;100.00
18275;BME280;19470;49.322;7.218;2022-11-15T02:45:07;98258.16;;;13.46;100.00
18275;BME280;19470;49.322;7.218;2022-11-15T02:47:42;98243.63;;;13.82;100.00
18275;BME280;19470;49.322;7.218;2022-11-15T02:50:11;98248.56;;;13.45;100.00
18275;BME280;19470;49.322;7.218;2022-11-15T02:52:38;98243.72;;;13.67;100.00
18275;BME280;19470;49.322;7.218;2022-11-15T02:55:05;98249.53;;;13.79;100.00
18275;BME280;19470;49.322;7.218;2022-11-15T02:57:40;98248.56;;;13.55;100.00
18275;BME280;19470;49.322;7.218;2022-11-15T03:00:11;98246.72;;;13.40;100.00
18275;BME280;19470;49.322;7.218;2022-11-15T03:03:26;98249.13;;;13.47;100.00
18275;BME280;19470;49.322;7.218;2022-11-15T03:06:02;98248.59;;;13.40;100.00
18275;BME280;19470;49.322;7.218;2022-11-15T03:08:32;98244.88;;;13.20;100.00
18275;BME280;19470;49.322;7.218;2022-11-15T03:11:03;98246.72;;;13.50;100.00
18275;BME280;19470;49.322;7.218;2022-11-15T03:13:36;98250.69;;;13.48;100.00
18275;BME280;19470;49.322;7.218;2022-11-15T03:16:09;98243.75;;;13.57;100.00
18275;BME280;19470;49.322;7.218;2022-11-15T03:18:41;98244.28;;;13.54;100.00
18275;BME280;19470;49.322;7.218;2022-11-15T03:21:11;98243.50;;;13.48;100.00
18275;BME280;19470;49.322;7.218;2022-11-15T03:23:40;98244.88;;;13.36;100.00
18275;BME280;19470;49.322;7.218;2022-11-15T03:26:09;98236.06;;;13.40;100.00
18275;BME280;19470;49.322;7.218;2022-11-15T03:28:40;98240.13;;;13.27;100.00
18275;BME280;19470;49.322;7.218;2022-11-15T03:31:10;98242.78;;;13.22;100.00
18275;BME280;19470;49.322;7.218;2022-11-15T03:33:55;98242.22;;;13.36;100.00
18275;BME280;19470;49.322;7.218;2022-11-15T03:36:25;98234.50;;;13.34;100.00
18275;BME280;19470;49.322;7.218;2022-11-15T03:38:53;98235.06;;;13.26;100.00
18275;BME280;19470;49.322;7.218;2022-11-15T03:41:25;98231.31;;;13.37;100.00
18275;BME280;19470;49.322;7.218;2022-11-15T03:43:57;98223.56;;;13.41;100.00
18275;BME280;19470;49.322;7.218;2022-11-15T03:46:31;98223.03;;;13.49;100.00
18275;BME280;19470;49.322;7.218;2022-11-15T03:49:05;98224.41;;;13.26;100.00
18275;BME280;19470;49.322;7.218;2022-11-15T03:51:34;98204.41;;;13.49;100.00
18275;BME280;19470;49.322;7.218;2022-11-15T03:57:22;98216.69;;;13.19;100.00
18275;BME280;19470;49.322;7.218;2022-11-15T03:59:49;98210.28;;;13.36;100.00
18275;BME280;19470;49.322;7.218;2022-11-15T04:02:16;98205.00;;;13.15;100.00
18275;BME280;19470;49.322;7.218;2022-11-15T04:04:44;98196.78;;;13.22;100.00
18275;BME280;19470;49.322;7.218;2022-11-15T04:07:10;98200.22;;;13.12;100.00
18275;BME280;19470;49.322;7.218;2022-11-15T04:09:37;98196.22;;;13.20;100.00
18275;BME280;19470;49.322;7.218;2022-11-15T04:12:24;98210.63;;;12.83;100.00
18275;BME280;19470;49.322;7.218;2022-11-15T04:14:57;98215.69;;;12.90;100.00
18275;BME280;19470;49.322;7.218;2022-11-15T04:17:42;98225.53;;;12.99;100.00
18275;BME280;19470;49.322;7.218;2022-11-15T04:20:12;98215.66;;;13.05;100.00
18275;BME280;19470;49.322;7.218;2022-11-15T04:22:58;98203.44;;;13.04;100.00
18275;BME280;19470;49.322;7.218;2022-11-15T04:25:43;98200.50;;;13.05;100.00
18275;BME280;19470;49.322;7.218;2022-11-15T04:28:10;98205.06;;;12.95;100.00
18275;BME280;19470;49.322;7.218;2022-11-15T04:30:37;98210.63;;;12.88;100.00
18275;BME280;19470;49.322;7.218;2022-11-15T04:33:04;98202.91;;;13.22;100.00
18275;BME280;19470;49.322;7.218;2022-11-15T04:35:32;98207.66;;;13.30;100.00
18275;BME280;19470;49.322;7.218;2022-11-15T04:37:59;98199.16;;;13.18;100.00
18275;BME280;19470;49.322;7.218;2022-11-15T04:40:25;98198.09;;;13.14;100.00
18275;BME280;19470;49.322;7.218;2022-11-15T04:42:52;98200.78;;;13.09;100.00
18275;BME280;19470;49.322;7.218;2022-11-15T04:45:19;98191.69;;;13.20;100.00
18275;BME280;19470;49.322;7.218;2022-11-15T04:47:46;98185.09;;;13.13;100.00
18275;BME280;19470;49.322;7.218;2022-11-15T04:50:13;98191.19;;;13.13;100.00
18275;BME280;19470;49.322;7.218;2022-11-15T04:52:42;98190.69;;;13.06;100.00
18275;BME280;19470;49.322;7.218;2022-11-15T04:55:09;98190.16;;;12.99;100.00
18275;BME280;19470;49.322;7.218;2022-11-15T04:57:35;98191.22;;;12.98;100.00
18275;BME280;19470;49.322;7.218;2022-11-15T05:00:04;98191.19;;;13.13;100.00
18275;BME280;19470;49.322;7.218;2022-11-15T05:02:31;98188.53;;;13.23;100.00
18275;BME280;19470;49.322;7.218;2022-11-15T05:05:11;98191.72;;;13.25;100.00
18275;BME280;19470;49.322;7.218;2022-11-15T05:07:38;98188.78;;;13.32;100.00
18275;BME280;19470;49.322;7.218;2022-11-15T05:10:06;98188.06;;;12.91;100.00
18275;BME280;19470;49.322;7.218;2022-11-15T05:12:33;98187.50;;;13.09;100.00
18275;BME280;19470;49.322;7.218;2022-11-15T05:14:59;98193.88;;;13.08;100.00
18275;BME280;19470;49.322;7.218;2022-11-15T05:17:26;98199.47;;;13.01;100.00
18275;BME280;19470;49.322;7.218;2022-11-15T05:19:52;98200.25;;;13.02;100.00
18275;BME280;19470;49.322;7.218;2022-11-15T05:22:22;98199.72;;;13.10;100.00
18275;BME280;19470;49.322;7.218;2022-11-15T05:24:48;98204.75;;;13.22;100.00
18275;BME280;19470;49.322;7.218;2022-11-15T05:27:16;98186.38;;;13.30;100.00
18275;BME280;19470;49.322;7.218;2022-11-15T05:29:52;98200.75;;;13.29;100.00
18275;BME280;19470;49.322;7.218;2022-11-15T05:32:18;98189.56;;;13.17;100.00
18275;BME280;19470;49.322;7.218;2022-11-15T05:34:45;98187.53;;;12.94;100.00
18275;BME280;19470;49.322;7.218;2022-11-15T05:37:12;98185.59;;;13.20;100.00
18275;BME280;19470;49.322;7.218;2022-11-15T05:39:38;98194.38;;;13.25;100.00
18275;BME280;19470;49.322;7.218;2022-11-15T05:42:07;98197.34;;;13.03;100.00
18275;BME280;19470;49.322;7.218;2022-11-15T05:44:39;98187.75;;;13.02;100.00
18275;BME280;19470;49.322;7.218;2022-11-15T05:47:09;98189.06;;;13.15;100.00
18275;BME280;19470;49.322;7.218;2022-11-15T05:49:38;98187.72;;;13.18;100.00
18275;BME280;19470;49.322;7.218;2022-11-15T05:52:07;98177.59;;;13.35;100.00
18275;BME280;19470;49.322;7.218;2022-11-15T05:54:37;98184.25;;;13.17;100.00
18275;BME280;19470;49.322;7.218;2022-11-15T05:57:04;98181.63;;;13.27;100.00
18275;BME280;19470;49.322;7.218;2022-11-15T05:59:31;98175.75;;;13.20;100.00
18275;BME280;19470;49.322;7.218;2022-11-15T06:02:00;98179.47;;;13.19;100.00
18275;BME280;19470;49.322;7.218;2022-11-15T06:04:27;98184.53;;;13.26;100.00
18275;BME280;19470;49.322;7.218;2022-11-15T06:06:54;98180.03;;;13.11;100.00
18275;BME280;19470;49.322;7.218;2022-11-15T06:09:20;98179.22;;;13.16;100.00
18275;BME280;19470;49.322;7.218;2022-11-15T06:11:47;98188.56;;;13.08;100.00
18275;BME280;19470;49.322;7.218;2022-11-15T06:14:14;98184.84;;;12.99;100.00
18275;BME280;19470;49.322;7.218;2022-11-15T06:16:47;98175.75;;;13.30;100.00
18275;BME280;19470;49.322;7.218;2022-11-15T06:19:14;98189.56;;;13.38;100.00
18275;BME280;19470;49.322;7.218;2022-11-15T06:21:41;98187.97;;;13.16;100.00
18275;BME280;19470;49.322;7.218;2022-11-15T06:24:08;98185.59;;;13.30;100.00
18275;BME280;19470;49.322;7.218;2022-11-15T06:26:34;98184.78;;;13.19;100.00
18275;BME280;19470;49.322;7.218;2022-11-15T06:29:02;98186.94;;;13.07;100.00
18275;BME280;19470;49.322;7.218;2022-11-15T06:31:28;98188.25;;;13.30;100.00
18275;BME280;19470;49.322;7.218;2022-11-15T06:33:55;98193.06;;;13.28;100.00
18275;BME280;19470;49.322;7.218;2022-11-15T06:36:23;98177.84;;;13.39;100.00
18275;BME280;19470;49.322;7.218;2022-11-15T06:38:49;98189.00;;;13.46;100.00
18275;BME280;19470;49.322;7.218;2022-11-15T06:41:17;98191.88;;;13.54;100.00
18275;BME280;19470;49.322;7.218;2022-11-15T06:43:43;98187.41;;;13.40;100.00
18275;BME280;19470;49.322;7.218;2022-11-15T06:46:10;98186.34;;;13.41;100.00
18275;BME280;19470;49.322;7.218;2022-11-15T06:48:37;98173.59;;;13.43;100.00
18275;BME280;19470;49.322;7.218;2022-11-15T06:51:04;98184.19;;;13.48;100.00
18275;BME280;19470;49.322;7.218;2022-11-15T06:53:33;98187.94;;;13.42;100.00
18275;BME280;19470;49.322;7.218;2022-11-15T06:56:00;98199.16;;;13.28;100.00
18275;BME280;19470;49.322;7.218;2022-11-15T06:58:27;98195.88;;;13.52;100.00
18275;BME280;19470;49.322;7.218;2022-11-15T07:00:58;98198.00;;;13.50;100.00
18275;BME280;19470;49.322;7.218;2022-11-15T07:03:25;98197.50;;;13.48;100.00
18275;BME280;19470;49.322;7.218;2022-11-15T07:05:52;98200.72;;;13.40;100.00
18275;BME280;19470;49.322;7.218;2022-11-15T07:08:20;98203.41;;;13.24;100.00
18275;BME280;19470;49.322;7.218;2022-11-15T07:10:48;98209.75;;;13.39;100.00
18275;BME280;19470;49.322;7.218;2022-11-15T07:13:14;98207.06;;;13.49;100.00
18275;BME280;19470;49.322;7.218;2022-11-15T07:15:41;98206.63;;;13.32;100.00
18275;BME280;19470;49.322;7.218;2022-11-15T07:18:07;98208.19;;;13.38;100.00
18275;BME280;19470;49.322;7.218;2022-11-15T07:20:34;98205.22;;;13.44;100.00
18275;BME280;19470;49.322;7.218;2022-11-15T07:23:01;98204.47;;;13.34;100.00
18275;BME280;19470;49.322;7.218;2022-11-15T07:25:28;98200.72;;;13.40;100.00
18275;BME280;19470;49.322;7.218;2022-11-15T07:27:56;98194.91;;;13.27;100.00
18275;BME280;19470;49.322;7.218;2022-11-15T07:30:24;98201.84;;;13.23;100.00
18275;BME280;19470;49.322;7.218;2022-11-15T07:32:52;98202.31;;;13.36;100.00
18275;BME280;19470;49.322;7.218;2022-11-15T07:35:19;98192.44;;;13.51;100.00
18275;BME280;19470;49.322;7.218;2022-11-15T07:37:53;98190.03;;;13.50;100.00
18275;BME280;19470;49.322;7.218;2022-11-15T07:40:19;98195.38;;;13.40;100.00
18275;BME280;19470;49.322;7.218;2022-11-15T07:42:46;98200.72;;;13.40;100.00
18275;BME280;19470;49.322;7.218;2022-11-15T07:45:23;98193.75;;;13.49;100.00
18275;BME280;19470;49.322;7.218;2022-11-15T07:47:52;98195.34;;;13.50;100.00
18275;BME280;19470;49.322;7.218;2022-11-15T07:50:19;98197.72;;;13.57;100.00
18275;BME280;19470;49.322;7.218;2022-11-15T07:52:46;98197.97;;;13.65;100.00
18275;BME280;19470;49.322;7.218;2022-11-15T07:55:13;98193.75;;;13.54;100.00
18275;BME280;19470;49.322;7.218;2022-11-15T07:57:40;98194.91;;;13.33;100.00
18275;BME280;19470;49.322;7.218;2022-11-15T08:00:07;98203.69;;;13.28;100.00
18275;BME280;19470;49.322;7.218;2022-11-15T08:02:35;98195.38;;;13.40;100.00
18275;BME280;19470;49.322;7.218;2022-11-15T08:05:02;98198.56;;;13.47;100.00
18275;BME280;19470;49.322;7.218;2022-11-15T08:07:29;98198.88;;;13.20;100.00
18275;BME280;19470;49.322;7.218;2022-11-15T08:09:56;98193.28;;;13.42;100.00
18275;BME280;19470;49.322;7.218;2022-11-15T08:12:23;98198.06;;;13.35;100.00
18275;BME280;19470;49.322;7.218;2022-11-15T08:14:49;98197.25;;;13.39;100.00
18275;BME280;19470;49.322;7.218;2022-11-15T08:17:16;98187.38;;;13.50;100.00
18275;BME280;19470;49.322;7.218;2022-11-15T08:19:44;98184.72;;;13.50;100.00
18275;BME280;19470;49.322;7.218;2022-11-15T08:22:10;98183.59;;;13.66;100.00
18275;BME280;19470;49.322;7.218;2022-11-15T08:24:37;98185.72;;;13.69;100.00
18275;BME280;19470;49.322;7.218;2022-11-15T08:27:03;98178.00;;;13.68;100.00
18275;BME280;19470;49.322;7.218;2022-11-15T08:29:30;98180.91;;;13.71;100.00
18275;BME280;19470;49.322;7.218;2022-11-15T08:31:56;98174.25;;;13.74;100.00
18275;BME280;19470;49.322;7.218;2022-11-15T08:34:23;98170.78;;;13.68;100.00
18275;BME280;19470;49.322;7.218;2022-11-15T08:36:51;98174.03;;;13.65;100.00
18275;BME280;19470;49.322;7.218;2022-11-15T08:39:17;98165.06;;;13.41;100.00
18275;BME280;19470;49.322;7.218;2022-11-15T08:41:44;98160.78;;;13.50;100.00
18275;BME280;19470;49.322;7.218;2022-11-15T08:44:10;98156.38;;;13.79;100.00
18275;BME280;19470;49.322;7.218;2022-11-15T08:46:37;98161.13;;;13.82;100.00
18275;BME280;19470;49.322;7.218;2022-11-15T08:49:03;98163.47;;;13.94;100.00
18275;BME280;19470;49.322;7.218;2022-11-15T08:51:30;98161.03;;;14.03;100.00
18275;BME280;19470;49.322;7.218;2022-11-15T08:53:58;98154.69;;;14.33;100.00
18275;BME280;19470;49.322;7.218;2022-11-15T08:56:24;98158.22;;;14.23;100.00
18275;BME280;19470;49.322;7.218;2022-11-15T08:58:51;98151.69;;;13.61;100.00
18275;BME280;19470;49.322;7.218;2022-11-15T09:01:19;98159.97;;;14.04;100.00
18275;BME280;19470;49.322;7.218;2022-11-15T09:03:45;98146.41;;;14.35;100.00
18275;BME280;19470;49.322;7.218;2022-11-15T09:06:12;98143.34;;;14.17;100.00
18275;BME280;19470;49.322;7.218;2022-11-15T09:08:39;98136.28;;;14.37;100.00
18275;BME280;19470;49.322;7.218;2022-11-15T09:11:09;98151.66;;;14.11;100.00
18275;BME280;19470;49.322;7.218;2022-11-15T09:13:36;98146.88;;;13.63;100.00
18275;BME280;19470;49.322;7.218;2022-11-15T09:16:03;98143.84;;;13.85;100.00
18275;BME280;19470;49.322;7.218;2022-11-15T09:18:31;98141.81;;;14.06;100.00
18275;BME280;19470;49.322;7.218;2022-11-15T09:20:58;98147.94;;;14.06;100.00
18275;BME280;19470;49.322;7.218;2022-11-15T09:23:27;98147.28;;;14.25;100.00
18275;BME280;19470;49.322;7.218;2022-11-15T09:25:58;98149.75;;;14.16;100.00
18275;BME280;19470;49.322;7.218;2022-11-15T09:28:26;98152.72;;;14.10;100.00
18275;BME280;19470;49.322;7.218;2022-11-15T09:30:56;98150.84;;;14.44;100.00
18275;BME280;19470;49.322;7.218;2022-11-15T09:33:23;98148.00;;;14.36;100.00
18275;BME280;19470;49.322;7.218;2022-11-15T09:35:49;98142.03;;;14.54;100.00
18275;BME280;19470;49.322;7.218;2022-11-15T09:38:16;98140.72;;;14.51;100.00
18275;BME280;19470;49.322;7.218;2022-11-15T09:40:43;98137.47;;;14.83;100.00
18275;BME280;19470;49.322;7.218;2022-11-15T09:43:31;98136.41;;;14.85;100.00
18275;BME280;19470;49.322;7.218;2022-11-15T09:46:09;98123.53;;;15.16;100.00
18275;BME280;19470;49.322;7.218;2022-11-15T09:48:49;98129.06;;;15.19;100.00
18275;BME280;19470;49.322;7.218;2022-11-15T09:51:24;98121.50;;;15.07;100.00
18275;BME280;19470;49.322;7.218;2022-11-15T09:53:57;98115.28;;;15.36;100.00
18275;BME280;19470;49.322;7.218;2022-11-15T09:56:28;98115.84;;;15.33;100.00
18275;BME280;19470;49.322;7.218;2022-11-15T09:59:04;98113.31;;;15.84;100.00
18275;BME280;19470;49.322;7.218;2022-11-15T10:01:40;98106.38;;;15.83;100.00
18275;BME280;19470;49.322;7.218;2022-11-15T10:04:08;98100.25;;;15.64;100.00
18275;BME280;19470;49.322;7.218;2022-11-15T10:06:38;98103.66;;;15.70;100.00
18275;BME280;19470;49.322;7.218;2022-11-15T10:09:13;98090.81;;;15.72;100.00
18275;BME280;19470;49.322;7.218;2022-11-15T10:11:41;98088.25;;;15.43;100.00
18275;BME280;19470;49.322;7.218;2022-11-15T10:14:12;98089.22;;;15.90;100.00
18275;BME280;19470;49.322;7.218;2022-11-15T10:17:11;98084.09;;;15.93;100.00
18275;BME280;19470;49.322;7.218;2022-11-15T10:19:54;98078.53;;;15.71;100.00
18275;BME280;19470;49.322;7.218;2022-11-15T10:22:28;98077.75;;;15.70;100.00
18275;BME280;19470;49.322;7.218;2022-11-15T10:25:08;98069.38;;;15.96;100.00
18275;BME280;19470;49.322;7.218;2022-11-15T10:27:38;98072.28;;;16.13;100.00
18275;BME280;19470;49.322;7.218;2022-11-15T10:30:11;98068.34;;;16.10;100.00
18275;BME280;19470;49.322;7.218;2022-11-15T10:32:40;98068.38;;;16.24;100.00
18275;BME280;19470;49.322;7.218;2022-11-15T10:35:23;98071.34;;;16.83;100.00
18275;BME280;19470;49.322;7.218;2022-11-15T10:37:49;98061.00;;;16.49;100.00
18275;BME280;19470;49.322;7.218;2022-11-15T10:40:19;98059.44;;;16.15;100.00
18275;BME280;19470;49.322;7.218;2022-11-15T10:42:46;98052.19;;;17.17;100.00
18275;BME280;19470;49.322;7.218;2022-11-15T10:45:26;98050.41;;;17.26;100.00
18275;BME280;19470;49.322;7.218;2022-11-15T10:48:21;98046.06;;;17.17;100.00
18275;BME280;19470;49.322;7.218;2022-11-15T10:50:49;98043.03;;;17.68;100.00
18275;BME280;19470;49.322;7.218;2022-11-15T10:53:21;98033.09;;;17.10;100.00
18275;BME280;19470;49.322;7.218;2022-11-15T10:55:50;98028.16;;;17.40;100.00
18275;BME280;19470;49.322;7.218;2022-11-15T10:58:22;98015.59;;;17.76;100.00
18275;BME280;19470;49.322;7.218;2022-11-15T11:00:55;98018.44;;;17.44;100.00
18275;BME280;19470;49.322;7.218;2022-11-15T11:03:28;98011.00;;;17.77;100.00
18275;BME280;19470;49.322;7.218;2022-11-15T11:06:08;97997.53;;;17.09;100.00
18275;BME280;19470;49.322;7.218;2022-11-15T11:08:35;97998.31;;;17.46;100.00
18275;BME280;19470;49.322;7.218;2022-11-15T11:11:03;97996.44;;;17.47;100.00
18275;BME280;19470;49.322;7.218;2022-11-15T11:13:32;97989.63;;;17.63;100.00
18275;BME280;19470;49.322;7.218;2022-11-15T11:16:19;97985.25;;;18.12;97.75
18275;BME280;19470;49.322;7.218;2022-11-15T11:18:54;97979.88;;;18.12;97.63
18275;BME280;19470;49.322;7.218;2022-11-15T11:21:28;97988.28;;;17.52;99.65
18275;BME280;19470;49.322;7.218;2022-11-15T11:24:04;97982.78;;;17.93;97.34
18275;BME280;19470;49.322;7.218;2022-11-15T11:26:41;97980.13;;;18.33;94.01
18275;BME280;19470;49.322;7.218;2022-11-15T11:29:21;97974.34;;;18.48;92.19
18275;BME280;19470;49.322;7.218;2022-11-15T11:31:58;97973.38;;;18.04;97.91
18275;BME280;19470;49.322;7.218;2022-11-15T11:34:45;97969.72;;;18.31;95.22
18275;BME280;19470;49.322;7.218;2022-11-15T11:37:20;97963.72;;;17.95;92.25
18275;BME280;19470;49.322;7.218;2022-11-15T11:39:59;97959.06;;;18.09;91.14
18275;BME280;19470;49.322;7.218;2022-11-15T11:42:43;97959.59;;;17.88;96.40
18275;BME280;19470;49.322;7.218;2022-11-15T11:45:18;97955.00;;;17.44;96.95
18275;BME280;19470;49.322;7.218;2022-11-15T11:47:51;97956.06;;;17.79;94.80
18275;BME280;19470;49.322;7.218;2022-11-15T11:50:19;97947.59;;;17.86;94.03
18275;BME280;19470;49.322;7.218;2022-11-15T11:52:56;97940.34;;;17.42;98.28
18275;BME280;19470;49.322;7.218;2022-11-15T11:55:26;97934.19;;;17.63;93.38
18275;BME280;19470;49.322;7.218;2022-11-15T11:58:02;97926.75;;;17.74;93.02
18275;BME280;19470;49.322;7.218;2022-11-15T12:00:31;97931.28;;;18.05;89.61
18275;BME280;19470;49.322;7.218;2022-11-15T12:03:10;97916.44;;;18.87;84.95
18275;BME280;19470;49.322;7.218;2022-11-15T12:05:40;97907.59;;;19.21;83.93
18275;BME280;19470;49.322;7.218;2022-11-15T12:08:21;97896.34;;;19.45;84.95
18275;BME280;19470;49.322;7.218;2022-11-15T12:10:54;97895.56;;;19.62;79.29
18275;BME280;19470;49.322;7.218;2022-11-15T12:13:26;97894.91;;;19.65;81.24
18275;BME280;19470;49.322;7.218;2022-11-15T12:15:59;97888.13;;;19.59;80.18
18275;BME280;19470;49.322;7.218;2022-11-15T12:18:28;97879.50;;;18.93;81.65
18275;BME280;19470;49.322;7.218;2022-11-15T12:20:58;97882.72;;;18.46;84.71
18275;BME280;19470;49.322;7.218;2022-11-15T12:23:28;97876.78;;;17.78;90.02
18275;BME280;19470;49.322;7.218;2022-11-15T12:26:00;97874.66;;;17.89;89.07
18275;BME280;19470;49.322;7.218;2022-11-15T12:28:35;97863.94;;;18.37;88.49
18275;BME280;19470;49.322;7.218;2022-11-15T12:31:18;97862.59;;;18.75;86.86
18275;BME280;19470;49.322;7.218;2022-11-15T12:33:49;97858.97;;;19.14;83.63
18275;BME280;19470;49.322;7.218;2022-11-15T12:36:32;97847.09;;;19.32;83.92
18275;BME280;19470;49.322;7.218;2022-11-15T12:39:01;97843.34;;;18.81;85.77
18275;BME280;19470;49.322;7.218;2022-11-15T12:41:29;97843.19;;;18.69;86.07
18275;BME280;19470;49.322;7.218;2022-11-15T12:43:56;97843.09;;;18.34;88.04
18275;BME280;19470;49.322;7.218;2022-11-15T12:49:45;97837.69;;;18.08;91.12
18275;BME280;19470;49.322;7.218;2022-11-15T12:52:12;97834.56;;;18.15;95.54
18275;BME280;19470;49.322;7.218;2022-11-15T12:55:28;97824.97;;;17.74;94.49
18275;BME280;19470;49.322;7.218;2022-11-15T12:58:39;97823.56;;;17.46;98.80
18275;BME280;19470;49.322;7.218;2022-11-15T13:01:07;97819.78;;;17.47;98.58
18275;BME280;19470;49.322;7.218;2022-11-15T13:03:34;97817.72;;;17.44;100.00
18275;BME280;19470;49.322;7.218;2022-11-15T13:06:10;97813.09;;;17.35;100.00
18275;BME280;19470;49.322;7.218;2022-11-15T13:08:56;97809.94;;;17.33;100.00
18275;BME280;19470;49.322;7.218;2022-11-15T13:11:46;97805.28;;;17.48;100.00
18275;BME280;19470;49.322;7.218;2022-11-15T13:14:40;97803.28;;;17.53;99.76
18275;BME280;19470;49.322;7.218;2022-11-15T13:17:35;97794.00;;;17.59;98.53